Time;durP1;ratioP1;P1;durP2;ratioP2;P2;SDS_P1;SDS_P2;PMS_P1;PMS_P2;Temp;Humidity;BMP_temperature;BMP_pressure;BME280_temperature;BME280_humidity;BME280_pressure;Samples;Min_cycle;Max_cycle;Signal;HPM_P1;HPM_P2
2022/04/30 00:00:51;;;;;;;7.95;5.32;;;12.20;99.90;;;;;;5051909;28;20021;-70
2022/04/30 00:03:16;;;;;;;6.47;5.13;;;12.20;99.90;;;;;;5051115;28;20377;-70
2022/04/30 00:05:42;;;;;;;8.18;5.53;;;12.20;99.90;;;;;;5052232;28;20025;-70
2022/04/30 00:08:08;;;;;;;7.82;5.60;;;12.10;99.90;;;;;;5050281;28;20056;-70
2022/04/30 00:10:37;;;;;;;6.60;5.63;;;12.10;99.90;;;;;;5051493;28;20025;-70
2022/04/30 00:13:12;;;;;;;7.03;6.32;;;12.10;99.90;;;;;;5051462;28;20072;-70
2022/04/30 00:15:38;;;;;;;10.73;6.40;;;12.00;99.90;;;;;;5052011;28;20099;-70
2022/04/30 00:18:05;;;;;;;7.78;5.78;;;12.00;99.90;;;;;;5050381;28;20509;-70
2022/04/30 00:20:32;;;;;;;7.95;6.47;;;12.00;99.90;;;;;;5051257;28;20064;-70
2022/04/30 00:22:58;;;;;;;8.43;6.32;;;11.90;99.90;;;;;;5051833;28;20078;-70
2022/04/30 00:25:23;;;;;;;6.75;6.07;;;11.90;99.90;;;;;;5051438;28;20237;-71
2022/04/30 00:27:50;;;;;;;7.75;6.07;;;11.80;99.90;;;;;;5051389;28;20056;-70
2022/04/30 00:30:16;;;;;;;12.30;6.90;;;11.70;99.90;;;;;;5050431;28;20029;-70
2022/04/30 00:32:42;;;;;;;9.07;6.97;;;11.70;99.90;;;;;;5051591;28;20356;-70
2022/04/30 00:35:08;;;;;;;8.43;6.93;;;11.70;99.90;;;;;;5049696;28;20036;-70
2022/04/30 00:37:34;;;;;;;10.73;7.40;;;11.70;99.90;;;;;;5051173;28;20041;-70
2022/04/30 00:40:00;;;;;;;11.98;6.90;;;11.70;99.90;;;;;;5051655;28;20064;-70
2022/04/30 00:42:25;;;;;;;10.68;7.78;;;11.70;99.90;;;;;;5050700;28;20449;-70
2022/04/30 00:44:51;;;;;;;12.05;7.82;;;11.70;99.90;;;;;;5051804;28;20071;-70
2022/04/30 00:47:18;;;;;;;11.02;7.38;;;11.70;99.90;;;;;;5050092;28;20040;-70
2022/04/30 00:49:47;;;;;;;9.80;7.53;;;11.70;99.90;;;;;;5051888;28;20029;-70
2022/04/30 00:52:15;;;;;;;11.25;8.15;;;11.70;99.90;;;;;;5050240;28;20029;-70
2022/04/30 00:54:43;;;;;;;11.80;7.78;;;11.80;99.90;;;;;;5051800;28;20029;-70
2022/04/30 00:57:14;;;;;;;10.23;7.80;;;11.80;99.90;;;;;;5050615;28;20040;-71
2022/04/30 00:59:40;;;;;;;10.02;7.05;;;11.90;99.90;;;;;;5051928;28;20031;-70
2022/04/30 01:02:09;;;;;;;10.18;7.45;;;12.00;99.90;;;;;;5050686;28;20025;-71
2022/04/30 01:04:35;;;;;;;9.68;7.40;;;12.00;99.90;;;;;;5051603;28;20108;-70
2022/04/30 01:07:08;;;;;;;11.10;7.25;;;12.00;99.90;;;;;;5050621;28;20112;-70
2022/04/30 01:09:42;;;;;;;8.13;7.32;;;12.10;99.90;;;;;;5051235;28;20068;-70
2022/04/30 01:12:10;;;;;;;10.68;8.35;;;12.10;99.90;;;;;;5050558;28;20489;-70
2022/04/30 01:14:37;;;;;;;11.63;8.57;;;12.10;99.90;;;;;;5053021;28;20024;-70
2022/04/30 01:17:05;;;;;;;10.50;8.98;;;12.10;99.90;;;;;;5054511;28;20045;-70
2022/04/30 01:19:33;;;;;;;13.45;8.57;;;12.00;99.90;;;;;;5054802;28;20079;-70
2022/04/30 01:22:01;;;;;;;10.75;9.32;;;12.00;99.90;;;;;;5054589;28;20029;-70
2022/04/30 01:24:30;;;;;;;17.63;11.10;;;12.00;99.90;;;;;;5053969;28;20029;-70
2022/04/30 01:26:57;;;;;;;18.27;12.63;;;12.00;99.90;;;;;;5054363;28;20037;-71
2022/04/30 01:29:24;;;;;;;21.27;12.80;;;12.00;99.90;;;;;;5052976;28;20021;-70
2022/04/30 01:37:24;;;;;;;22.00;13.93;;;12.00;99.90;;;;;;5053262;28;20079;-71
2022/04/30 01:39:57;;;;;;;26.70;16.45;;;11.90;99.90;;;;;;5054689;28;20029;-71
2022/04/30 01:42:24;;;;;;;22.92;15.13;;;11.90;99.90;;;;;;5053457;28;20104;-71
2022/04/30 01:44:53;;;;;;;25.30;16.98;;;11.90;99.90;;;;;;5054684;28;20381;-71
2022/04/30 01:47:19;;;;;;;24.25;16.35;;;11.90;99.90;;;;;;5053347;28;20039;-71
2022/04/30 01:49:45;;;;;;;21.25;16.02;;;11.90;99.90;;;;;;5054716;28;20032;-71
2022/04/30 01:52:13;;;;;;;25.17;16.67;;;11.80;99.90;;;;;;5053580;28;20386;-71
2022/04/30 01:54:39;;;;;;;27.33;16.92;;;11.80;99.90;;;;;;5054693;28;20029;-71
2022/04/30 01:57:05;;;;;;;26.60;17.75;;;11.70;99.90;;;;;;5054242;28;20028;-71
2022/04/30 01:59:31;;;;;;;30.95;17.95;;;11.70;99.90;;;;;;5053823;28;20029;-71
2022/04/30 02:01:59;;;;;;;25.30;17.63;;;11.70;99.90;;;;;;5053574;28;20025;-70
2022/04/30 02:04:25;;;;;;;28.90;18.13;;;11.60;99.90;;;;;;5052604;28;20017;-71
2022/04/30 02:06:51;;;;;;;32.13;18.55;;;11.60;99.90;;;;;;5053382;28;20029;-71
2022/04/30 02:09:18;;;;;;;31.75;18.25;;;11.60;99.90;;;;;;5052903;28;20085;-71
2022/04/30 02:11:45;;;;;;;29.15;19.05;;;11.60;99.90;;;;;;5053883;28;20033;-71
2022/04/30 02:14:15;;;;;;;26.63;17.45;;;11.60;99.90;;;;;;5053618;28;20025;-71
2022/04/30 02:16:43;;;;;;;27.50;18.30;;;11.60;99.90;;;;;;5053458;28;20033;-71
2022/04/30 02:19:09;;;;;;;30.77;20.08;;;11.50;99.90;;;;;;5053545;28;20052;-71
2022/04/30 02:21:35;;;;;;;29.83;19.42;;;11.60;99.90;;;;;;5053550;28;20028;-71
2022/04/30 02:24:02;;;;;;;33.20;21.05;;;11.60;99.90;;;;;;5053754;28;20044;-70
2022/04/30 02:26:29;;;;;;;34.30;18.95;;;11.50;99.90;;;;;;5052394;28;20037;-71
2022/04/30 02:28:56;;;;;;;29.38;19.20;;;11.60;99.90;;;;;;5054071;28;20498;-71
2022/04/30 02:31:25;;;;;;;38.83;20.35;;;11.50;99.90;;;;;;5052865;28;20032;-70
2022/04/30 02:33:56;;;;;;;33.97;20.58;;;11.60;99.90;;;;;;5053294;28;20100;-70
2022/04/30 02:36:25;;;;;;;32.13;19.63;;;11.60;99.90;;;;;;5052786;28;20083;-71
2022/04/30 02:38:53;;;;;;;29.65;19.80;;;11.60;99.90;;;;;;5053112;28;20091;-71
2022/04/30 02:41:21;;;;;;;26.77;18.50;;;11.50;99.90;;;;;;5051906;28;20116;-71
2022/04/30 02:43:51;;;;;;;36.13;19.75;;;11.50;99.90;;;;;;5051506;28;20079;-71
2022/04/30 02:46:17;;;;;;;23.60;17.40;;;11.40;99.90;;;;;;5052520;28;20039;-71
2022/04/30 02:48:43;;;;;;;30.98;20.15;;;11.50;99.90;;;;;;5052161;28;20036;-70
2022/04/30 02:51:10;;;;;;;32.50;19.05;;;11.40;99.90;;;;;;5053494;28;20025;-71
2022/04/30 02:53:39;;;;;;;27.60;17.55;;;11.50;99.90;;;;;;5052957;28;20028;-70
2022/04/30 02:56:11;;;;;;;26.90;17.50;;;11.40;99.90;;;;;;5053208;28;20029;-70
2022/04/30 03:01:23;;;;;;;24.85;17.65;;;11.40;99.90;;;;;;5052346;28;20555;-70
2022/04/30 03:03:49;;;;;;;26.05;17.50;;;11.30;99.90;;;;;;5052853;28;20435;-70
2022/04/30 03:06:16;;;;;;;22.98;17.70;;;11.30;99.90;;;;;;5052074;28;20116;-71
2022/04/30 03:08:45;;;;;;;27.70;17.90;;;11.30;99.90;;;;;;5052521;28;20045;-70
2022/04/30 03:11:12;;;;;;;25.63;17.88;;;11.30;99.90;;;;;;5053138;28;20040;-72
2022/04/30 03:13:38;;;;;;;24.40;17.27;;;11.30;99.90;;;;;;5052427;28;20087;-71
2022/04/30 03:21:47;;;;;;;25.00;17.35;;;11.20;99.90;;;;;;5052333;28;20532;-72
2022/04/30 03:24:27;;;;;;;33.10;20.10;;;11.20;99.90;;;;;;5032659;28;20033;-71
2022/04/30 03:26:52;;;;;;;29.88;19.23;;;11.20;99.90;;;;;;5033102;28;20052;-71
2022/04/30 03:29:19;;;;;;;34.00;21.52;;;11.20;99.90;;;;;;5032114;28;20076;-71
2022/04/30 03:31:45;;;;;;;32.00;20.20;;;11.20;99.90;;;;;;5032842;28;20088;-71
2022/04/30 03:34:12;;;;;;;33.97;20.58;;;11.20;99.90;;;;;;5052591;28;20029;-71
2022/04/30 03:36:38;;;;;;;34.45;21.98;;;11.20;99.90;;;;;;5051761;28;20060;-71
2022/04/30 03:39:04;;;;;;;34.45;22.35;;;11.20;99.90;;;;;;5051383;28;20059;-71
2022/04/30 03:41:30;;;;;;;36.58;22.38;;;11.20;99.90;;;;;;5048822;28;20029;-71
2022/04/30 03:43:56;;;;;;;34.83;21.73;;;11.10;99.90;;;;;;5050325;28;20116;-71
2022/04/30 03:46:21;;;;;;;35.83;24.15;;;11.10;99.90;;;;;;5051113;28;20033;-71
2022/04/30 03:48:53;;;;;;;32.85;22.27;;;11.00;99.90;;;;;;5051823;28;20506;-71
2022/04/30 03:51:22;;;;;;;39.40;25.10;;;11.00;99.90;;;;;;5051611;28;20021;-71
2022/04/30 03:53:49;;;;;;;37.53;24.17;;;11.00;99.90;;;;;;5051913;28;20025;-71
2022/04/30 03:56:17;;;;;;;42.97;28.05;;;11.10;99.90;;;;;;5051675;28;20531;-71
2022/04/30 03:58:43;;;;;;;43.13;26.50;;;11.10;99.90;;;;;;5052246;28;20104;-71
2022/04/30 04:01:10;;;;;;;39.35;25.58;;;11.00;99.90;;;;;;5052228;28;20048;-71
2022/04/30 04:03:36;;;;;;;43.65;27.13;;;11.00;99.90;;;;;;5051059;28;20029;-71
2022/04/30 04:06:02;;;;;;;44.00;26.92;;;11.00;99.90;;;;;;5052253;28;20075;-71
2022/04/30 04:08:28;;;;;;;39.40;25.70;;;10.90;99.90;;;;;;5050750;28;20560;-71
2022/04/30 04:10:55;;;;;;;46.17;27.67;;;10.90;99.90;;;;;;5051932;28;20031;-71
2022/04/30 04:18:54;;;;;;;38.13;26.42;;;10.90;99.90;;;;;;5051424;28;20390;-71
2022/04/30 04:21:20;;;;;;;44.30;28.05;;;10.80;99.90;;;;;;5051202;28;20027;-71
2022/04/30 04:26:30;;;;;;;42.63;28.30;;;10.80;99.90;;;;;;5051070;28;20040;-71
2022/04/30 04:28:56;;;;;;;45.22;27.83;;;10.80;99.90;;;;;;5051851;28;20029;-70
2022/04/30 04:31:25;;;;;;;44.75;28.60;;;10.70;99.90;;;;;;5051183;28;20132;-71
2022/04/30 04:33:51;;;;;;;43.22;28.17;;;10.70;99.90;;;;;;5051478;28;20032;-70
2022/04/30 04:36:17;;;;;;;44.78;28.40;;;10.70;99.90;;;;;;5051146;28;20493;-71
2022/04/30 04:38:44;;;;;;;44.17;27.45;;;10.80;99.90;;;;;;5052209;28;20482;-69
2022/04/30 04:41:10;;;;;;;44.72;28.38;;;10.80;99.90;;;;;;5051751;28;20057;-71
2022/04/30 04:43:35;;;;;;;46.90;27.30;;;10.80;99.90;;;;;;5050646;28;20065;-71
2022/04/30 04:46:06;;;;;;;44.35;28.42;;;10.70;99.90;;;;;;5051408;28;20390;-71
2022/04/30 04:48:33;;;;;;;42.88;27.25;;;10.70;99.90;;;;;;5050648;28;20052;-71
2022/04/30 04:51:00;;;;;;;47.78;27.52;;;10.70;99.90;;;;;;5055717;28;20444;-71
2022/04/30 04:53:26;;;;;;;41.50;28.17;;;10.70;99.90;;;;;;5054653;28;20629;-71
2022/04/30 04:55:51;;;;;;;45.42;28.48;;;10.70;99.90;;;;;;5055107;28;20057;-70
2022/04/30 04:58:17;;;;;;;43.88;28.17;;;10.70;99.90;;;;;;5054927;28;20037;-71
2022/04/30 05:00:43;;;;;;;42.92;26.42;;;10.70;99.90;;;;;;5054678;28;20033;-71
2022/04/30 05:03:09;;;;;;;44.30;26.63;;;10.70;99.90;;;;;;5055267;28;20032;-69
2022/04/30 05:05:35;;;;;;;45.95;28.65;;;10.80;99.90;;;;;;5054130;28;20462;-69
2022/04/30 05:08:01;;;;;;;45.78;29.30;;;10.70;99.90;;;;;;5054994;28;20076;-68
2022/04/30 05:10:26;;;;;;;42.63;28.45;;;10.70;99.90;;;;;;5054753;28;20080;-70
2022/04/30 05:12:52;;;;;;;47.92;28.98;;;10.60;99.90;;;;;;5055198;28;20040;-70
2022/04/30 05:15:18;;;;;;;45.33;29.05;;;10.50;99.90;;;;;;5053586;28;20041;-71
2022/04/30 05:17:43;;;;;;;41.15;27.83;;;10.50;99.90;;;;;;5052752;28;20032;-69
2022/04/30 05:20:09;;;;;;;48.35;28.02;;;10.40;99.90;;;;;;5055094;28;20378;-69
2022/04/30 05:22:35;;;;;;;43.53;27.55;;;10.40;99.90;;;;;;5054334;28;20052;-70
2022/04/30 05:25:01;;;;;;;51.42;29.52;;;10.40;99.90;;;;;;5054883;28;20053;-71
2022/04/30 05:27:26;;;;;;;46.55;28.73;;;10.30;99.90;;;;;;5054152;28;20531;-70
2022/04/30 05:29:52;;;;;;;44.03;27.30;;;10.30;99.90;;;;;;5054895;28;20021;-70
2022/04/30 05:32:17;;;;;;;43.72;28.52;;;10.30;99.90;;;;;;5054799;28;20036;-71
2022/04/30 05:34:43;;;;;;;46.47;30.27;;;10.30;99.90;;;;;;5052776;28;20021;-71
2022/04/30 05:37:08;;;;;;;45.38;30.52;;;10.30;99.90;;;;;;5054674;28;20036;-70
2022/04/30 05:39:34;;;;;;;39.55;27.60;;;10.30;99.90;;;;;;5054073;28;20040;-70
2022/04/30 05:42:00;;;;;;;43.08;28.95;;;10.30;99.90;;;;;;5050453;28;20028;-70
2022/04/30 05:44:25;;;;;;;42.92;28.17;;;10.30;99.90;;;;;;5053992;28;20068;-70
2022/04/30 05:46:51;;;;;;;50.28;30.10;;;10.30;99.90;;;;;;5054354;28;20107;-69
2022/04/30 05:49:16;;;;;;;46.50;29.48;;;10.30;99.90;;;;;;5054588;28;20028;-69
2022/04/30 05:51:42;;;;;;;49.03;31.02;;;10.30;99.90;;;;;;5053672;28;20205;-68
2022/04/30 05:54:08;;;;;;;50.50;32.42;;;10.30;99.90;;;;;;5054024;28;20075;-69
2022/04/30 05:56:34;;;;;;;47.60;30.95;;;10.30;99.90;;;;;;5053618;28;20107;-69
2022/04/30 05:59:00;;;;;;;42.60;31.05;;;10.40;99.90;;;;;;5053430;28;20037;-69
2022/04/30 06:01:25;;;;;;;42.83;29.65;;;10.40;99.90;;;;;;5051240;28;20032;-69
2022/04/30 06:03:52;;;;;;;47.90;31.30;;;10.40;99.90;;;;;;5054505;28;20373;-68
2022/04/30 06:06:20;;;;;;;48.75;29.60;;;10.40;99.90;;;;;;5053866;28;20037;-68
2022/04/30 06:08:47;;;;;;;46.42;29.55;;;10.30;99.90;;;;;;5053419;28;20049;-69
2022/04/30 06:11:13;;;;;;;45.35;30.77;;;10.30;99.90;;;;;;5054261;28;20032;-69
2022/04/30 06:13:39;;;;;;;46.95;31.27;;;10.30;99.90;;;;;;5052011;28;20029;-70
2022/04/30 06:16:05;;;;;;;43.30;29.70;;;10.40;99.90;;;;;;5053580;28;20080;-69
2022/04/30 06:18:30;;;;;;;42.30;28.98;;;10.40;99.90;;;;;;5052882;28;20033;-69
2022/04/30 06:20:56;;;;;;;44.20;29.42;;;10.40;99.90;;;;;;5053550;28;20032;-69
2022/04/30 06:23:22;;;;;;;43.85;29.20;;;10.30;99.90;;;;;;5054097;28;20037;-69
2022/04/30 06:25:48;;;;;;;46.85;30.08;;;10.30;99.90;;;;;;5052909;28;20100;-69
2022/04/30 06:28:14;;;;;;;43.67;27.55;;;10.30;99.90;;;;;;5053860;28;20036;-68
2022/04/30 06:30:41;;;;;;;40.10;27.25;;;10.40;99.90;;;;;;5053148;28;20451;-69
2022/04/30 06:33:08;;;;;;;35.90;25.95;;;10.40;99.90;;;;;;5053508;28;20036;-68
2022/04/30 06:35:35;;;;;;;40.40;29.02;;;10.50;99.90;;;;;;5052645;28;20033;-69
2022/04/30 06:38:01;;;;;;;46.10;29.40;;;10.60;99.90;;;;;;5053758;28;20037;-69
2022/04/30 06:40:27;;;;;;;41.33;28.77;;;10.70;99.90;;;;;;5053232;28;20025;-69
2022/04/30 06:42:52;;;;;;;40.72;27.45;;;10.80;99.90;;;;;;5053143;28;20039;-71
2022/04/30 06:45:18;;;;;;;37.92;26.00;;;10.80;99.90;;;;;;5053354;28;20028;-72
2022/04/30 06:47:44;;;;;;;40.83;26.90;;;10.90;99.90;;;;;;5052265;28;20021;-70
2022/04/30 06:50:10;;;;;;;41.42;26.50;;;11.00;99.90;;;;;;5052168;28;20027;-71
2022/04/30 06:58:05;;;;;;;40.60;26.73;;;11.10;99.90;;;;;;5053282;28;20071;-72
2022/04/30 07:03:15;;;;;;;38.55;26.80;;;11.20;99.90;;;;;;5052796;28;20040;-72
2022/04/30 07:05:41;;;;;;;40.05;27.00;;;11.20;99.90;;;;;;5051235;28;20029;-72
2022/04/30 07:08:07;;;;;;;36.78;26.40;;;11.10;99.90;;;;;;5047349;28;20087;-72
2022/04/30 07:10:32;;;;;;;39.05;27.95;;;11.10;99.90;;;;;;5042991;28;20042;-72
2022/04/30 07:12:58;;;;;;;33.10;25.10;;;11.00;99.90;;;;;;5040256;28;20038;-73
2022/04/30 07:15:23;;;;;;;35.95;26.10;;;11.00;99.90;;;;;;5043116;28;20095;-72
2022/04/30 07:17:50;;;;;;;35.80;25.48;;;11.00;99.90;;;;;;5040531;28;20097;-72
2022/04/30 07:20:16;;;;;;;35.35;24.73;;;11.00;99.90;;;;;;5042224;28;20497;-72
2022/04/30 07:22:41;;;;;;;41.15;26.40;;;11.00;99.90;;;;;;5039228;28;20067;-73
2022/04/30 07:25:08;;;;;;;34.60;23.73;;;11.00;99.90;;;;;;5044315;28;20055;-73
2022/04/30 07:27:33;;;;;;;38.72;25.90;;;11.00;99.90;;;;;;5041223;28;20048;-72
2022/04/30 07:29:59;;;;;;;34.90;24.50;;;11.00;99.90;;;;;;5042468;28;20041;-72
2022/04/30 07:32:25;;;;;;;36.47;24.13;;;11.00;99.90;;;;;;5042911;28;20037;-72
2022/04/30 07:34:50;;;;;;;34.78;23.88;;;11.00;99.90;;;;;;5042246;28;20154;-72
2022/04/30 07:37:17;;;;;;;34.10;25.13;;;11.00;99.90;;;;;;5040304;28;20100;-72
2022/04/30 07:39:43;;;;;;;32.80;23.90;;;11.00;99.90;;;;;;5041653;28;20048;-71
2022/04/30 07:42:10;;;;;;;33.08;24.70;;;11.00;99.90;;;;;;5042693;28;20467;-72
2022/04/30 07:44:35;;;;;;;33.20;24.88;;;11.00;99.90;;;;;;5040749;28;20045;-71
2022/04/30 07:47:01;;;;;;;36.03;24.92;;;10.90;99.90;;;;;;5039724;28;20052;-71
2022/04/30 07:49:27;;;;;;;31.80;22.77;;;10.90;99.90;;;;;;5040714;28;20021;-71
2022/04/30 07:51:55;;;;;;;38.05;25.08;;;10.90;99.90;;;;;;5039628;28;20082;-71
2022/04/30 07:54:22;;;;;;;31.55;23.45;;;10.90;99.90;;;;;;5041852;28;20025;-71
2022/04/30 07:56:52;;;;;;;32.13;24.02;;;10.90;99.90;;;;;;5039635;28;20028;-71
2022/04/30 07:59:17;;;;;;;31.85;24.30;;;10.80;99.90;;;;;;5042025;28;20029;-71
2022/04/30 08:01:43;;;;;;;31.77;23.45;;;10.90;99.90;;;;;;5042117;28;20036;-72
2022/04/30 08:04:09;;;;;;;34.33;23.63;;;10.90;99.90;;;;;;5049998;28;20051;-72
2022/04/30 08:06:35;;;;;;;32.63;23.73;;;10.90;99.90;;;;;;5049840;28;20043;-73
2022/04/30 08:09:03;;;;;;;32.70;25.02;;;10.90;99.90;;;;;;5050465;28;20057;-73
2022/04/30 08:11:29;;;;;;;34.72;24.90;;;10.90;99.90;;;;;;5048410;28;20414;-72
2022/04/30 08:13:55;;;;;;;34.40;24.58;;;11.00;99.90;;;;;;5039466;28;20060;-72
2022/04/30 08:16:21;;;;;;;36.58;24.95;;;11.00;99.90;;;;;;5044203;28;20387;-72
2022/04/30 08:18:46;;;;;;;32.45;23.30;;;11.10;99.90;;;;;;5038982;28;20100;-72
2022/04/30 08:21:12;;;;;;;31.83;23.02;;;11.10;99.90;;;;;;5040968;28;20052;-72
2022/04/30 08:23:38;;;;;;;31.80;22.92;;;11.10;99.90;;;;;;5038648;28;20032;-72
2022/04/30 08:26:03;;;;;;;31.15;22.17;;;11.10;99.90;;;;;;5043892;28;20709;-72
2022/04/30 08:28:30;;;;;;;28.33;22.52;;;11.00;99.90;;;;;;5039448;28;20029;-73
2022/04/30 08:30:57;;;;;;;34.17;23.15;;;11.10;99.90;;;;;;5040217;28;20048;-73
2022/04/30 08:33:22;;;;;;;31.65;22.27;;;11.10;99.90;;;;;;5040968;28;20029;-72
2022/04/30 08:35:48;;;;;;;28.38;20.55;;;11.20;99.90;;;;;;5042404;28;20029;-72
2022/04/30 08:38:14;;;;;;;29.92;21.27;;;11.10;99.90;;;;;;5039213;28;20033;-72
2022/04/30 08:40:42;;;;;;;26.80;20.30;;;11.10;99.90;;;;;;5039880;28;20034;-72
2022/04/30 08:43:11;;;;;;;27.58;20.30;;;11.00;99.90;;;;;;5041354;28;20033;-72
2022/04/30 08:45:39;;;;;;;26.92;20.13;;;11.00;99.90;;;;;;5038689;28;20034;-72
2022/04/30 08:48:09;;;;;;;26.10;20.13;;;10.90;99.90;;;;;;5042181;28;20033;-72
2022/04/30 08:50:37;;;;;;;26.67;20.58;;;11.00;99.90;;;;;;5041028;28;20074;-72
2022/04/30 08:53:03;;;;;;;26.67;21.58;;;11.00;99.90;;;;;;5040576;28;20048;-72
2022/04/30 08:55:29;;;;;;;26.77;20.73;;;10.90;99.90;;;;;;5041667;28;20025;-72
2022/04/30 08:57:54;;;;;;;28.48;22.23;;;10.90;99.90;;;;;;5038625;28;20101;-73
2022/04/30 09:00:20;;;;;;;32.55;21.02;;;10.80;99.90;;;;;;5040605;28;20100;-72
2022/04/30 09:02:54;;;;;;;27.92;20.83;;;10.80;99.90;;;;;;5042492;28;20037;-73
2022/04/30 09:05:21;;;;;;;28.77;21.30;;;10.70;99.90;;;;;;5065497;28;20025;-79
2022/04/30 09:07:54;;;;;;;26.48;21.45;;;10.70;99.90;;;;;;5038835;28;20138;-78
2022/04/30 09:10:29;;;;;;;31.35;20.23;;;10.60;99.90;;;;;;5040598;28;20042;-78
2022/04/30 09:13:14;;;;;;;27.92;21.00;;;10.50;99.90;;;;;;5036209;28;20037;-74
2022/04/30 09:15:44;;;;;;;24.90;19.88;;;10.50;99.90;;;;;;5036458;28;20368;-73
2022/04/30 09:18:10;;;;;;;26.75;19.48;;;10.40;99.90;;;;;;5050925;28;20386;-71
2022/04/30 09:20:43;;;;;;;23.30;18.17;;;10.40;99.90;;;;;;5050865;28;20028;-72
2022/04/30 09:23:10;;;;;;;26.83;19.73;;;10.30;99.90;;;;;;5050900;28;20378;-77
2022/04/30 09:25:36;;;;;;;28.05;20.05;;;10.30;99.90;;;;;;5050966;28;20029;-73
2022/04/30 09:28:03;;;;;;;22.63;18.13;;;10.20;99.90;;;;;;5050908;28;20584;-73
2022/04/30 09:30:29;;;;;;;23.42;18.95;;;10.20;99.90;;;;;;5051568;28;20025;-71
2022/04/30 09:32:58;;;;;;;24.23;18.05;;;10.20;99.90;;;;;;5053306;28;20032;-73
2022/04/30 09:38:09;;;;;;;24.10;17.80;;;10.10;99.90;;;;;;5055334;28;20128;-68
2022/04/30 09:40:35;;;;;;;24.10;17.42;;;10.10;99.90;;;;;;5054211;28;20482;-70
2022/04/30 09:43:01;;;;;;;21.73;17.45;;;10.10;99.90;;;;;;5038803;28;20063;-70
2022/04/30 09:45:32;;;;;;;21.23;17.20;;;10.10;99.90;;;;;;5043427;28;20080;-68
2022/04/30 09:47:59;;;;;;;21.77;16.92;;;10.10;99.90;;;;;;5037743;28;20049;-75
2022/04/30 09:56:06;;;;;;;19.20;14.68;;;10.10;99.90;;;;;;5053086;28;20040;-70
2022/04/30 09:58:38;;;;;;;16.67;13.55;;;10.20;99.90;;;;;;5054732;28;20040;-70
2022/04/30 10:01:05;;;;;;;13.10;11.77;;;10.20;99.90;;;;;;5054013;28;20029;-70
2022/04/30 10:03:33;;;;;;;15.10;12.48;;;10.30;99.90;;;;;;5054365;28;20067;-70
2022/04/30 10:06:02;;;;;;;16.25;12.15;;;10.30;99.90;;;;;;5053273;28;20060;-70
2022/04/30 10:08:32;;;;;;;14.15;12.65;;;10.20;99.90;;;;;;5054649;28;20151;-69
2022/04/30 10:11:16;;;;;;;13.57;11.88;;;10.30;99.90;;;;;;5052908;28;20041;-70
2022/04/30 10:14:01;;;;;;;14.32;11.10;;;10.30;99.90;;;;;;5053666;28;20095;-70
2022/04/30 10:16:28;;;;;;;14.05;11.25;;;10.30;99.90;;;;;;5053777;28;20064;-70
2022/04/30 10:19:10;;;;;;;14.65;12.45;;;10.40;99.90;;;;;;5053127;28;20029;-70
2022/04/30 10:21:37;;;;;;;12.75;11.35;;;10.50;99.90;;;;;;5054029;28;20053;-70
2022/04/30 10:24:05;;;;;;;13.25;11.85;;;10.60;99.90;;;;;;5053287;28;20083;-70
2022/04/30 10:26:31;;;;;;;16.23;12.48;;;10.70;99.90;;;;;;5053705;28;20040;-69
2022/04/30 10:29:10;;;;;;;13.77;12.05;;;10.70;99.90;;;;;;5053200;28;20032;-70
2022/04/30 10:31:45;;;;;;;14.57;12.00;;;10.80;99.90;;;;;;5052622;28;20035;-69
2022/04/30 10:34:13;;;;;;;14.52;12.23;;;10.80;99.90;;;;;;5053971;28;20025;-70
2022/04/30 10:36:39;;;;;;;12.13;10.82;;;10.80;99.90;;;;;;5053544;28;20056;-70
2022/04/30 10:39:12;;;;;;;15.15;11.40;;;10.90;99.90;;;;;;5053108;28;20069;-70
2022/04/30 10:41:45;;;;;;;14.25;11.52;;;11.00;99.90;;;;;;5053811;28;20025;-70
2022/04/30 10:44:13;;;;;;;14.82;11.43;;;11.10;99.90;;;;;;5053824;28;20029;-70
2022/04/30 10:46:45;;;;;;;14.27;10.95;;;11.20;99.90;;;;;;5052770;28;20108;-70
2022/04/30 10:49:11;;;;;;;14.30;10.82;;;11.30;99.90;;;;;;5053665;28;20024;-70
2022/04/30 10:51:42;;;;;;;13.30;10.80;;;11.30;99.90;;;;;;5053368;28;20351;-70
2022/04/30 10:54:18;;;;;;;15.30;11.23;;;11.20;99.90;;;;;;5053148;28;20488;-70
2022/04/30 10:56:45;;;;;;;13.57;11.02;;;11.20;99.90;;;;;;5052680;28;20040;-71
2022/04/30 10:59:21;;;;;;;12.77;10.57;;;11.20;99.90;;;;;;5053756;28;20037;-69
2022/04/30 11:01:50;;;;;;;11.52;9.50;;;11.20;99.90;;;;;;5052141;28;20029;-70
2022/04/30 11:04:20;;;;;;;12.18;10.23;;;11.20;99.90;;;;;;5053136;28;20443;-69
2022/04/30 11:06:52;;;;;;;11.52;9.82;;;11.20;99.90;;;;;;5052513;28;20036;-71
2022/04/30 11:09:19;;;;;;;8.68;7.50;;;11.20;99.90;;;;;;5052681;28;20543;-70
2022/04/30 11:11:49;;;;;;;5.72;4.63;;;11.30;99.90;;;;;;5052668;28;20546;-71
2022/04/30 11:14:16;;;;;;;5.35;4.85;;;11.30;99.90;;;;;;5053480;28;20050;-71
2022/04/30 11:16:46;;;;;;;4.47;4.18;;;11.30;99.90;;;;;;5042587;28;20033;-70
2022/04/30 11:19:23;;;;;;;4.82;4.43;;;11.20;99.90;;;;;;5052600;28;20076;-71
2022/04/30 11:21:52;;;;;;;4.03;3.72;;;11.10;99.90;;;;;;5032148;28;20045;-71
2022/04/30 11:24:32;;;;;;;4.60;4.18;;;11.20;99.90;;;;;;5032946;28;20021;-71
2022/04/30 11:27:05;;;;;;;4.22;3.83;;;11.10;99.90;;;;;;5031920;28;20037;-71
2022/04/30 11:29:35;;;;;;;4.22;3.83;;;11.20;99.90;;;;;;5042494;28;20049;-71
2022/04/30 11:32:01;;;;;;;5.32;4.53;;;11.30;99.90;;;;;;5051761;28;20377;-71
2022/04/30 11:34:27;;;;;;;4.68;4.25;;;11.50;99.90;;;;;;5052316;28;20051;-71
2022/04/30 11:36:54;;;;;;;4.63;4.22;;;11.70;99.90;;;;;;5051778;28;20466;-71
2022/04/30 11:39:21;;;;;;;5.45;4.95;;;12.00;99.90;;;;;;5052506;28;20033;-71
2022/04/30 11:41:52;;;;;;;4.13;3.65;;;12.30;99.90;;;;;;5051955;28;20075;-72
2022/04/30 11:44:22;;;;;;;5.03;4.63;;;12.60;99.90;;;;;;5052779;28;20021;-71
2022/04/30 11:46:48;;;;;;;;;;;12.80;99.90;;;;;;5051831;28;20021;-72
2022/04/30 11:49:19;;;;;;;4.85;4.35;;;13.00;99.90;;;;;;5052062;28;19911;-71
2022/04/30 11:51:47;;;;;;;5.00;4.60;;;13.00;99.90;;;;;;5031058;28;20044;-71
2022/04/30 11:54:22;;;;;;;4.50;4.10;;;13.10;99.90;;;;;;5031715;28;20052;-70
2022/04/30 11:56:49;;;;;;;4.28;3.88;;;13.30;99.90;;;;;;5051335;28;20043;-71
2022/04/30 11:59:15;;;;;;;4.22;3.88;;;13.40;99.90;;;;;;5050746;28;20029;-71
2022/04/30 12:01:42;;;;;;;4.15;3.85;;;13.40;99.90;;;;;;5050916;28;20082;-71
2022/04/30 12:04:14;;;;;;;7.13;5.28;;;13.40;99.90;;;;;;5051871;28;20116;-70
2022/04/30 12:06:43;;;;;;;5.68;5.00;;;13.40;99.90;;;;;;5032408;28;20041;-70
2022/04/30 12:09:16;;;;;;;7.03;4.57;;;13.20;99.90;;;;;;5030907;28;20061;-70
2022/04/30 12:11:53;;;;;;;4.90;4.40;;;13.10;99.90;;;;;;5032570;28;20033;-70
2022/04/30 12:14:20;;;;;;;6.32;4.80;;;13.10;99.90;;;;;;5032877;28;20466;-70
2022/04/30 12:16:47;;;;;;;4.90;4.40;;;13.20;99.90;;;;;;5050515;28;20029;-70
2022/04/30 12:25:09;;;;;;;5.40;4.82;;;13.20;99.90;;;;;;5050662;28;20043;-70
2022/04/30 12:27:38;;;;;;;5.07;4.60;;;13.10;99.90;;;;;;5051925;28;20025;-69
2022/04/30 12:30:09;;;;;;;5.38;4.85;;;13.00;99.90;;;;;;5049726;28;20037;-69
2022/04/30 12:32:45;;;;;;;;;;;13.00;99.90;;;;;;5052463;28;20025;-69
2022/04/30 12:35:14;;;;;;;6.00;5.20;;;13.10;99.90;;;;;;5050508;28;20464;-69
2022/04/30 12:37:39;;;;;;;5.45;4.95;;;13.40;99.90;;;;;;5051818;28;20048;-69
2022/04/30 12:40:06;;;;;;;5.97;5.35;;;13.70;99.90;;;;;;5049698;28;20033;-70
2022/04/30 12:42:31;;;;;;;5.35;4.85;;;13.60;99.90;;;;;;5040200;28;20467;-68
2022/04/30 12:44:57;;;;;;;5.32;4.78;;;13.50;99.90;;;;;;5035193;28;20040;-69
2022/04/30 12:47:23;;;;;;;6.15;5.40;;;13.30;99.90;;;;;;5051558;28;20111;-70
2022/04/30 12:49:49;;;;;;;6.60;5.53;;;13.10;99.90;;;;;;5051457;28;20456;-69
2022/04/30 12:52:15;;;;;;;5.30;4.80;;;13.00;99.90;;;;;;5050907;28;20017;-69
2022/04/30 12:54:41;;;;;;;7.00;5.90;;;12.80;99.90;;;;;;5051209;28;20052;-68
2022/04/30 12:57:07;;;;;;;6.40;5.72;;;12.80;99.90;;;;;;5050805;28;20033;-68
2022/04/30 12:59:37;;;;;;;6.03;5.47;;;12.80;99.90;;;;;;5051262;28;20033;-69
2022/04/30 13:02:04;;;;;;;6.38;5.78;;;12.70;99.90;;;;;;5051121;28;20451;-70
2022/04/30 13:04:30;;;;;;;7.25;6.40;;;12.50;99.90;;;;;;5051410;28;20044;-71
2022/04/30 13:06:56;;;;;;;7.97;6.00;;;12.40;99.90;;;;;;5050969;28;20033;-68
2022/04/30 13:14:51;;;;;;;6.00;5.38;;;12.30;99.90;;;;;;5054935;28;20032;-70
2022/04/30 13:17:16;;;;;;;6.30;5.63;;;12.40;99.90;;;;;;5054363;28;20213;-71
2022/04/30 13:19:42;;;;;;;6.22;5.63;;;12.40;99.90;;;;;;5055043;28;20096;-70
2022/04/30 13:22:08;;;;;;;7.47;6.78;;;12.30;99.90;;;;;;5052940;28;20029;-70
2022/04/30 13:24:33;;;;;;;10.32;7.57;;;12.30;99.90;;;;;;5055282;28;20025;-70